IBE212 RJCC-RJCM
Flight info
| Callsign | IBE212 |
|---|---|
| Flight time | N/A |
| Altitude | 21000 |
| Route | BOKSO V5 TCE Y111 OZORA |
| Aircraft | A346/H-SDE2E3FGHIJ3J4J5M1RWXY/LB1D1 |
Departure
| Time | N/A |
|---|---|
| Airport | New Chitose Airport (RJCC) |
Arrival
| Time | 2026-04-16 20:18 |
|---|---|
| Airport | Memanbetsu Airport (RJCM) |
| Time | Latitude | Longitude | Altitude | Speed | Heading |
|---|---|---|---|---|---|
| 2026-04-16 19:49 | 42.83264 | 142.67578 | 20434 ft | 462 kts | 76° |
| 2026-04-16 19:49 | 42.83825 | 142.71919 | 21004 ft | 466 kts | 76° |
| 2026-04-16 19:49 | 42.84386 | 142.76275 | 21230 ft | 466 kts | 76° |
| 2026-04-16 19:49 | 42.84945 | 142.80632 | 21218 ft | 466 kts | 76° |
| 2026-04-16 19:50 | 42.85501 | 142.84987 | 21211 ft | 465 kts | 76° |
| 2026-04-16 19:50 | 42.86055 | 142.89337 | 21208 ft | 465 kts | 76° |
| 2026-04-16 19:50 | 42.86614 | 142.93712 | 21216 ft | 465 kts | 76° |
| 2026-04-16 19:50 | 42.87207 | 142.98056 | 21219 ft | 465 kts | 75° |
| 2026-04-16 19:51 | 42.87809 | 143.02342 | 21218 ft | 465 kts | 75° |
| 2026-04-16 19:51 | 42.88420 | 143.06672 | 21218 ft | 465 kts | 75° |
| 2026-04-16 19:51 | 42.89029 | 143.11017 | 21233 ft | 464 kts | 75° |
| 2026-04-16 19:51 | 42.89633 | 143.15351 | 21223 ft | 464 kts | 75° |
| 2026-04-16 19:52 | 42.90233 | 143.19686 | 21224 ft | 464 kts | 75° |
| 2026-04-16 19:52 | 42.90830 | 143.24021 | 21223 ft | 464 kts | 75° |
| 2026-04-16 19:52 | 42.91425 | 143.28351 | 21224 ft | 464 kts | 75° |
| 2026-04-16 19:52 | 42.92018 | 143.32695 | 21224 ft | 464 kts | 75° |
| 2026-04-16 19:53 | 42.92608 | 143.37024 | 21223 ft | 464 kts | 75° |
| 2026-04-16 19:53 | 42.93198 | 143.41364 | 21223 ft | 464 kts | 75° |
| 2026-04-16 19:53 | 42.93785 | 143.45696 | 21242 ft | 464 kts | 76° |
| 2026-04-16 19:53 | 42.94372 | 143.50032 | 21232 ft | 463 kts | 76° |
| 2026-04-16 19:54 | 42.94956 | 143.54368 | 21227 ft | 463 kts | 76° |
| 2026-04-16 19:54 | 42.95537 | 143.58697 | 21229 ft | 463 kts | 76° |
| 2026-04-16 19:54 | 42.96118 | 143.63034 | 21229 ft | 463 kts | 76° |
| 2026-04-16 19:54 | 42.96692 | 143.67334 | 21228 ft | 463 kts | 76° |
| 2026-04-16 19:55 | 42.97268 | 143.71668 | 21226 ft | 463 kts | 76° |
| 2026-04-16 19:55 | 42.97844 | 143.76003 | 21219 ft | 463 kts | 76° |
| 2026-04-16 19:55 | 42.98417 | 143.80341 | 21204 ft | 463 kts | 76° |
| 2026-04-16 19:55 | 42.98989 | 143.84683 | 21208 ft | 464 kts | 76° |
| 2026-04-16 19:56 | 42.99559 | 143.89021 | 21201 ft | 464 kts | 76° |
| 2026-04-16 19:56 | 43.00122 | 143.93321 | 21192 ft | 464 kts | 76° |
| 2026-04-16 19:56 | 43.00691 | 143.97668 | 21185 ft | 464 kts | 76° |
| 2026-04-16 19:56 | 43.01260 | 144.02021 | 21179 ft | 464 kts | 76° |
| 2026-04-16 19:57 | 43.01824 | 144.06362 | 21181 ft | 464 kts | 76° |
| 2026-04-16 19:57 | 43.02423 | 144.10708 | 21166 ft | 462 kts | 72° |
| 2026-04-16 19:57 | 43.03682 | 144.14662 | 21144 ft | 448 kts | 50° |
| 2026-04-16 19:57 | 43.05791 | 144.17671 | 21180 ft | 432 kts | 30° |
| 2026-04-16 19:58 | 43.08404 | 144.19526 | 21182 ft | 416 kts | 12° |
| 2026-04-16 19:58 | 43.11201 | 144.20179 | 21181 ft | 404 kts | 356° |
| 2026-04-16 19:58 | 43.14017 | 144.20152 | 21191 ft | 404 kts | 354° |
| 2026-04-16 19:58 | 43.16794 | 144.20098 | 21180 ft | 405 kts | 354° |
| 2026-04-16 19:59 | 43.19611 | 144.20052 | 21025 ft | 405 kts | 354° |
| 2026-04-16 19:59 | 43.22430 | 144.20019 | 20552 ft | 402 kts | 354° |
| 2026-04-16 19:59 | 43.25215 | 144.19995 | 20095 ft | 398 kts | 354° |
| 2026-04-16 20:00 | 43.30737 | 144.19955 | 19127 ft | 392 kts | 354° |
| 2026-04-16 20:00 | 43.33451 | 144.19936 | 18659 ft | 389 kts | 354° |
| 2026-04-16 20:00 | 43.36144 | 144.19917 | 18168 ft | 385 kts | 354° |
| 2026-04-16 20:00 | 43.38769 | 144.19900 | 17734 ft | 379 kts | 354° |
| 2026-04-16 20:01 | 43.41397 | 144.19884 | 17322 ft | 373 kts | 354° |
| 2026-04-16 20:01 | 43.43978 | 144.19868 | 16916 ft | 368 kts | 354° |
| 2026-04-16 20:01 | 43.46535 | 144.19962 | 16509 ft | 367 kts | 359° |
| 2026-04-16 20:01 | 43.49060 | 144.20511 | 16111 ft | 368 kts | 6° |
| 2026-04-16 20:02 | 43.51516 | 144.21520 | 15712 ft | 370 kts | 13° |
| 2026-04-16 20:02 | 43.53905 | 144.22815 | 15313 ft | 367 kts | 15° |
| 2026-04-16 20:02 | 43.56260 | 144.24152 | 14922 ft | 365 kts | 15° |
| 2026-04-16 20:02 | 43.58600 | 144.25488 | 14497 ft | 363 kts | 15° |
| 2026-04-16 20:03 | 43.60925 | 144.26816 | 14092 ft | 361 kts | 15° |
| 2026-04-16 20:03 | 43.63213 | 144.28120 | 13663 ft | 357 kts | 15° |
| 2026-04-16 20:03 | 43.65507 | 144.29422 | 13208 ft | 355 kts | 15° |
| 2026-04-16 20:03 | 43.67785 | 144.30714 | 12733 ft | 353 kts | 15° |
| 2026-04-16 20:04 | 43.69289 | 144.31567 | 12433 ft | 352 kts | 15° |
| 2026-04-16 20:04 | 43.71547 | 144.32848 | 11964 ft | 349 kts | 16° |
| 2026-04-16 20:04 | 43.73790 | 144.34122 | 11514 ft | 348 kts | 16° |
| 2026-04-16 20:04 | 43.76029 | 144.35396 | 11046 ft | 347 kts | 17° |
| 2026-04-16 20:05 | 43.78942 | 144.37061 | 10725 ft | 333 kts | 17° |
| 2026-04-16 20:05 | 43.80377 | 144.37885 | 10624 ft | 325 kts | 17° |
| 2026-04-16 20:05 | 43.82422 | 144.39058 | 10495 ft | 312 kts | 17° |
| 2026-04-16 20:05 | 43.84393 | 144.40189 | 10385 ft | 300 kts | 16° |
| 2026-04-16 20:06 | 43.86296 | 144.41281 | 10247 ft | 289 kts | 16° |
| 2026-04-16 20:06 | 43.88114 | 144.42321 | 10151 ft | 277 kts | 15° |
| 2026-04-16 20:06 | 43.89871 | 144.43325 | 10053 ft | 269 kts | 15° |
| 2026-04-16 20:06 | 43.91561 | 144.44289 | 9961 ft | 265 kts | 15° |
| 2026-04-16 20:07 | 43.93270 | 144.45260 | 9673 ft | 265 kts | 15° |
| 2026-04-16 20:07 | 43.94980 | 144.46235 | 9350 ft | 265 kts | 15° |
| 2026-04-16 20:07 | 43.96682 | 144.47208 | 9058 ft | 264 kts | 15° |
| 2026-04-16 20:07 | 43.98373 | 144.48177 | 8772 ft | 262 kts | 15° |
| 2026-04-16 20:08 | 44.00055 | 144.49143 | 8496 ft | 261 kts | 15° |
| 2026-04-16 20:08 | 44.01729 | 144.50105 | 8215 ft | 260 kts | 16° |
| 2026-04-16 20:08 | 44.03399 | 144.51065 | 7936 ft | 259 kts | 16° |
| 2026-04-16 20:08 | 44.05063 | 144.52023 | 7670 ft | 258 kts | 16° |
| 2026-04-16 20:09 | 44.06720 | 144.52974 | 7401 ft | 258 kts | 16° |
| 2026-04-16 20:09 | 44.08364 | 144.53873 | 7128 ft | 255 kts | 8° |
| 2026-04-16 20:09 | 44.10074 | 144.53948 | 6812 ft | 242 kts | 341° |
| 2026-04-16 20:09 | 44.11556 | 144.52965 | 6514 ft | 234 kts | 317° |
| 2026-04-16 20:10 | 44.12564 | 144.51237 | 6217 ft | 228 kts | 294° |
| 2026-04-16 20:10 | 44.12955 | 144.49123 | 5960 ft | 226 kts | 273° |
| 2026-04-16 20:10 | 44.12700 | 144.46949 | 5692 ft | 229 kts | 256° |
| 2026-04-16 20:10 | 44.12188 | 144.44844 | 5434 ft | 228 kts | 255° |
| 2026-04-16 20:11 | 44.11667 | 144.42756 | 5171 ft | 228 kts | 254° |
| 2026-04-16 20:11 | 44.11148 | 144.40700 | 4910 ft | 227 kts | 254° |
| 2026-04-16 20:11 | 44.10624 | 144.38624 | 4637 ft | 227 kts | 254° |
| 2026-04-16 20:11 | 44.10099 | 144.36551 | 4353 ft | 227 kts | 253° |
| 2026-04-16 20:12 | 44.09573 | 144.34477 | 4063 ft | 228 kts | 253° |
| 2026-04-16 20:12 | 44.09043 | 144.32394 | 3785 ft | 228 kts | 252° |
| 2026-04-16 20:12 | 44.08511 | 144.30309 | 3508 ft | 229 kts | 252° |
| 2026-04-16 20:12 | 44.07977 | 144.28213 | 3224 ft | 230 kts | 251° |
| 2026-04-16 20:13 | 44.07440 | 144.26113 | 2942 ft | 231 kts | 251° |
| 2026-04-16 20:13 | 44.06897 | 144.23994 | 2661 ft | 233 kts | 251° |
| 2026-04-16 20:13 | 44.06352 | 144.21867 | 2376 ft | 234 kts | 250° |
| 2026-04-16 20:13 | 44.05808 | 144.19743 | 2237 ft | 227 kts | 250° |
| 2026-04-16 20:14 | 44.05299 | 144.17768 | 2242 ft | 212 kts | 250° |
| 2026-04-16 20:14 | 44.04676 | 144.15985 | 2211 ft | 200 kts | 227° |
| 2026-04-16 20:14 | 44.03537 | 144.15025 | 2233 ft | 185 kts | 199° |
| 2026-04-16 20:14 | 44.02330 | 144.14740 | 2248 ft | 169 kts | 186° |
| 2026-04-16 20:15 | 44.01217 | 144.14745 | 2212 ft | 153 kts | 180° |
| 2026-04-16 20:15 | 44.00164 | 144.14843 | 2222 ft | 151 kts | 179° |
| 2026-04-16 20:15 | 43.99121 | 144.14971 | 2164 ft | 150 kts | 178° |
| 2026-04-16 20:15 | 43.98078 | 144.15107 | 1957 ft | 150 kts | 178° |
| 2026-04-16 20:16 | 43.97047 | 144.15241 | 1760 ft | 149 kts | 178° |
| 2026-04-16 20:16 | 43.96029 | 144.15374 | 1540 ft | 148 kts | 177° |
| 2026-04-16 20:16 | 43.95004 | 144.15506 | 1336 ft | 148 kts | 177° |
| 2026-04-16 20:16 | 43.93983 | 144.15638 | 1112 ft | 147 kts | 176° |
| 2026-04-16 20:17 | 43.92969 | 144.15770 | 903 ft | 146 kts | 176° |
| 2026-04-16 20:17 | 43.91954 | 144.15901 | 695 ft | 145 kts | 175° |
| 2026-04-16 20:17 | 43.90946 | 144.16031 | 498 ft | 145 kts | 175° |
| 2026-04-16 20:17 | 43.89942 | 144.16161 | 308 ft | 144 kts | 175° |
| 2026-04-16 20:18 | 43.88950 | 144.16290 | 121 ft | 140 kts | 175° |
| 2026-04-16 20:18 | 43.88193 | 144.16383 | 122 ft | 72 kts | 175° |
| 2026-04-16 20:18 | 43.87792 | 144.16434 | 123 ft | 51 kts | 175° |
| 2026-04-16 20:18 | 43.87499 | 144.16472 | 128 ft | 34 kts | 174° |
| 2026-04-16 20:19 | 43.87355 | 144.16434 | 131 ft | 8 kts | 236° |
| 2026-04-16 20:19 | 43.87355 | 144.16433 | 131 ft | 0 kts | 236° |
| 2026-04-16 20:22 | 43.87344 | 144.16402 | 130 ft | 8 kts | 257° |
| 2026-04-16 20:22 | 43.87336 | 144.16323 | 124 ft | 15 kts | 291° |
| 2026-04-16 20:22 | 43.87422 | 144.16255 | 127 ft | 14 kts | 349° |
| 2026-04-16 20:22 | 43.87519 | 144.16239 | 127 ft | 15 kts | 354° |
| 2026-04-16 20:23 | 43.87627 | 144.16225 | 126 ft | 15 kts | 354° |
| 2026-04-16 20:23 | 43.87735 | 144.16211 | 126 ft | 15 kts | 354° |
| 2026-04-16 20:23 | 43.87843 | 144.16197 | 126 ft | 15 kts | 354° |
| 2026-04-16 20:23 | 43.87949 | 144.16184 | 123 ft | 11 kts | 354° |
| 2026-04-16 20:24 | 43.88049 | 144.16171 | 124 ft | 15 kts | 354° |
| 2026-04-16 20:24 | 43.88126 | 144.16161 | 123 ft | 8 kts | 0° |
| 2026-04-16 20:24 | 43.88142 | 144.16164 | 123 ft | 8 kts | 332° |
| 2026-04-16 20:24 | 43.88158 | 144.16108 | 122 ft | 9 kts | 275° |
| 2026-04-16 20:25 | 43.88157 | 144.16029 | 121 ft | 8 kts | 266° |
| 2026-04-16 20:25 | 43.88154 | 144.15976 | 122 ft | 0 kts | 265° |
| 2026-04-16 20:25 | 43.88154 | 144.15977 | 122 ft | 0 kts | 265° |